Diego Garcia Naval Support Facility
FJDG : now visible

Airfield :











YOU CAN JOIN US ON...

 
LOGIN :

Register | Disclaimer

   EN    FR    IT 

 









Legend :    VFR   Marginal VFR   IFR   Intensive IFR   Very Intensive IFR
Visi :
Ceiling :
>= 8 km
>= 3000ft
5 to 8 km
1000 to 3000 ft
1500m to 5 km
500 to 1000 ft
800 to 1500m
200 to 500 ft
< 800m
< 200 ft
Symbols :   Thunderstorms  Fog  Heavy snow  Heavy precipitations  Wind > 20 kt






- Airport Elevation : 9 ft
- IATA code : NKW


FJDG - Diego Garcia Naval Support Facility

CURRENT METAR :
  • 301555Z 09007KT 9999 BR SCT020 SCT050 BKN250 28/25 A2989 RMK SLP119 P0009 T02770250

EXPIRED METARs :
  • 301531Z 11010KT 6000 SHRA SCT020 SCT050 BKN250 27/25 A2989 RMK SLP119
  • 301455Z 11009KT 9999 FEW020 SCT250 28/25 A2987 RMK SLP112 8/101 T02840249 52014
  • 301355Z 12010KT 9999 FEW020 FEW250 29/25 A2986 RMK SLP108 T02870248

TAF TAF FJDG
Valid from the 30 at 09:00 until the 31 at 15:00 UTC


300900Z 3009/3115 12009KT 9999 SCT025 QNH2982INS
BECMG 3106/3107 08015KT 9999 FEW026 QNH2989INS
BECMG 3112/3113 09012KT 9000 -SHRA BKN025 QNH2984INS
BECMG 3114/3115 08009KT 9999 NSW SCT026 QNH2982INS TX32/3009Z TN27/3023Z
FIMM FIR / Asia



MET'MAP, your aeronautical weather chart ! - Copyright ORBIFLY December 2007 - Disclaimer

ORBIFLY MET'MAP TEAM :

Programming & Development : Alexandra Zaïnal
Concept & original design : Baudouin d'Aumeries
Assistance for programming : Marc-Olivier Méhu
Technical & hardware support : Manuel Goepfert

Contact : metmap@orbifly.com




SOURCES & CREDITS :

   NOAA       Earth
Advisory